createdAt,value
2019-05-09T00:00:58.553Z,8.60
2019-05-09T00:01:57.978Z,9.20
2019-05-09T00:02:57.936Z,8.70
2019-05-09T00:03:57.929Z,8.60
2019-05-09T00:04:57.928Z,9.10
2019-05-09T00:05:57.923Z,9.50
2019-05-09T00:06:57.875Z,9.30
2019-05-09T00:07:57.925Z,8.40
2019-05-09T00:08:57.891Z,9.20
2019-05-09T00:09:57.847Z,8.70
2019-05-09T00:10:57.855Z,8.80
2019-05-09T00:11:57.823Z,8.90
2019-05-09T00:12:57.841Z,9.50
2019-05-09T00:13:57.815Z,9.20
2019-05-09T00:14:57.795Z,9.00
2019-05-09T00:15:57.810Z,9.70
2019-05-09T00:16:57.777Z,10.40
2019-05-09T00:17:57.771Z,10.00
2019-05-09T00:18:57.766Z,10.80
2019-05-09T00:19:57.761Z,11.00
2019-05-09T00:20:57.757Z,10.20
2019-05-09T00:21:57.732Z,11.30
2019-05-09T00:22:57.762Z,10.80
2019-05-09T00:23:57.688Z,10.70
2019-05-09T00:24:57.703Z,11.20
2019-05-09T00:25:57.692Z,10.70
2019-05-09T00:26:57.746Z,10.90
2019-05-09T00:27:57.649Z,11.60
2019-05-09T00:28:57.704Z,11.40
2019-05-09T00:29:57.650Z,10.90
2019-05-09T00:30:57.629Z,10.80
2019-05-09T00:31:57.613Z,11.60
2019-05-09T00:32:57.650Z,12.30
2019-05-09T00:33:57.579Z,10.50
2019-05-09T00:34:57.572Z,11.30
2019-05-09T00:35:57.583Z,10.70
2019-05-09T00:36:57.568Z,10.60
2019-05-09T00:37:57.578Z,10.10
2019-05-09T00:38:57.572Z,10.10
2019-05-09T00:39:57.546Z,10.70
2019-05-09T00:40:59.059Z,9.80
2019-05-09T00:41:57.533Z,10.60
2019-05-09T00:42:57.478Z,9.90
2019-05-09T00:43:57.476Z,10.30
2019-05-09T00:44:57.505Z,9.80
2019-05-09T00:45:57.458Z,8.90
2019-05-09T00:46:57.548Z,9.90
2019-05-09T00:47:57.496Z,10.10
2019-05-09T00:48:57.520Z,10.30
2019-05-09T00:49:57.448Z,9.70
2019-05-09T00:50:57.460Z,9.70
2019-05-09T00:51:57.490Z,9.40
2019-05-09T00:52:57.488Z,9.50
2019-05-09T00:53:57.458Z,9.10
2019-05-09T00:54:57.469Z,8.90
2019-05-09T00:55:57.338Z,9.40
2019-05-09T00:56:57.371Z,9.10
2019-05-09T00:57:57.342Z,8.90
2019-05-09T00:58:57.345Z,9.10
2019-05-09T00:59:57.330Z,9.20
2019-05-09T01:00:57.299Z,9.30
2019-05-09T01:01:57.302Z,8.80
2019-05-09T01:04:18.379Z,7.80
2019-05-09T01:05:19.344Z,8.70
2019-05-09T01:06:19.330Z,8.90
2019-05-09T01:07:19.346Z,9.10
2019-05-09T01:08:19.295Z,8.30
2019-05-09T01:09:19.295Z,8.60
2019-05-09T01:10:19.346Z,8.40
2019-05-09T01:11:19.269Z,8.50
2019-05-09T01:12:19.274Z,8.80
2019-05-09T01:13:19.278Z,8.20
2019-05-09T01:14:19.245Z,8.20
2019-05-09T01:15:19.246Z,8.60
2019-05-09T01:16:19.243Z,8.40
2019-05-09T01:17:19.281Z,7.90
2019-05-09T01:18:19.199Z,8.70
2019-05-09T01:19:19.189Z,7.80
2019-05-09T01:20:19.209Z,8.10
2019-05-09T01:21:19.167Z,7.90
2019-05-09T01:22:19.211Z,8.40
2019-05-09T01:23:19.165Z,7.70
2019-05-09T01:24:19.128Z,7.80
2019-05-09T01:25:19.124Z,7.60
2019-05-09T01:26:19.118Z,7.40
2019-05-09T01:27:19.131Z,7.30
2019-05-09T01:28:19.091Z,7.10
2019-05-09T01:29:19.084Z,7.20
2019-05-09T01:30:19.064Z,6.20
2019-05-09T01:31:19.089Z,6.30
2019-05-09T01:32:19.085Z,6.10
2019-05-09T01:33:19.032Z,5.90
2019-05-09T01:34:19.031Z,5.40
2019-05-09T01:35:19.011Z,5.30
2019-05-09T01:36:19.002Z,4.80
2019-05-09T01:37:19.017Z,4.50
2019-05-09T01:38:19.022Z,4.50
2019-05-09T01:39:18.965Z,4.70
2019-05-09T01:40:18.967Z,4.50
2019-05-09T01:41:30.163Z,4.40
2019-05-09T01:42:18.964Z,4.50
2019-05-09T01:43:19.006Z,4.70
2019-05-09T01:44:18.907Z,4.90
2019-05-09T01:45:18.892Z,4.40
2019-05-09T01:46:18.903Z,4.50
2019-05-09T01:47:18.917Z,4.50
2019-05-09T01:48:18.890Z,4.90
2019-05-09T01:49:18.857Z,4.30
2019-05-09T01:50:18.844Z,4.40
2019-05-09T01:51:18.829Z,4.50
2019-05-09T01:52:18.817Z,4.20
2019-05-09T01:53:18.820Z,4.40
2019-05-09T01:54:18.836Z,4.00
2019-05-09T01:55:18.800Z,4.10
2019-05-09T01:56:18.784Z,3.50
2019-05-09T01:57:18.785Z,3.50
2019-05-09T01:58:18.796Z,3.90
2019-05-09T01:59:18.774Z,3.70
2019-05-09T02:00:18.750Z,4.00
2019-05-09T02:01:18.739Z,3.70
2019-05-09T02:02:18.729Z,3.50
2019-05-09T02:03:18.733Z,3.70
2019-05-09T02:04:18.714Z,3.70
2019-05-09T02:05:18.718Z,4.30
2019-05-09T02:06:18.657Z,4.50
2019-05-09T02:07:18.681Z,4.30
2019-05-09T02:08:18.674Z,4.20
2019-05-09T02:09:18.632Z,4.60
2019-05-09T02:10:18.623Z,4.30
2019-05-09T02:11:18.617Z,4.50
2019-05-09T02:12:18.590Z,4.50
2019-05-09T02:13:18.611Z,4.50
2019-05-09T02:14:18.577Z,4.60
2019-05-09T02:15:18.568Z,4.00
2019-05-09T02:16:18.565Z,4.50
2019-05-09T02:17:18.591Z,4.10
2019-05-09T02:18:18.585Z,3.90
2019-05-09T02:19:18.530Z,4.00
2019-05-09T02:20:18.531Z,4.20
2019-05-09T02:21:18.528Z,3.90
2019-05-09T02:22:18.485Z,3.80
2019-05-09T02:23:18.534Z,3.80
2019-05-09T02:24:18.497Z,3.80
2019-05-09T02:25:18.450Z,3.60
2019-05-09T02:26:18.458Z,3.80
2019-05-09T02:27:18.433Z,3.60
2019-05-09T02:28:18.455Z,3.90
2019-05-09T02:29:18.415Z,3.70
2019-05-09T02:30:18.411Z,3.80
2019-05-09T02:31:18.405Z,4.00
2019-05-09T02:32:18.403Z,3.90
2019-05-09T02:33:18.376Z,3.90
2019-05-09T02:34:18.379Z,3.40
2019-05-09T02:35:18.384Z,3.90
2019-05-09T02:36:19.149Z,3.90
2019-05-09T02:37:18.812Z,3.80
2019-05-09T02:38:19.966Z,3.80
2019-05-09T02:39:19.030Z,3.80
2019-05-09T02:40:18.906Z,3.60
2019-05-09T02:41:19.554Z,3.40
2019-05-09T02:42:19.686Z,3.70
2019-05-09T02:43:18.803Z,3.60
2019-05-09T02:44:19.528Z,3.50
2019-05-09T02:45:19.295Z,3.60
2019-05-09T02:46:19.050Z,3.10
2019-05-09T02:47:18.234Z,3.80
2019-05-09T02:48:18.696Z,3.60
2019-05-09T02:49:19.123Z,3.90
2019-05-09T02:50:19.577Z,3.70
2019-05-09T02:51:18.766Z,4.00
2019-05-09T02:52:19.844Z,3.50
2019-05-09T02:53:19.056Z,3.50
2019-05-09T02:54:19.099Z,3.90
2019-05-09T02:55:18.578Z,3.80
2019-05-09T02:56:19.070Z,4.10
2019-05-09T02:57:18.654Z,4.30
2019-05-09T02:58:20.399Z,4.60
2019-05-09T02:59:18.979Z,4.20
2019-05-09T03:00:20.072Z,4.50
2019-05-09T03:01:18.974Z,4.80
2019-05-09T03:02:19.549Z,4.40
2019-05-09T03:03:19.822Z,4.40
2019-05-09T03:05:29.655Z,3.40
2019-05-09T03:06:28.569Z,3.80
2019-05-09T03:07:28.875Z,4.10
2019-05-09T03:08:29.581Z,4.30
2019-05-09T03:09:28.728Z,3.90
2019-05-09T03:10:29.297Z,4.10
2019-05-09T03:11:29.102Z,3.90
2019-05-09T03:12:35.126Z,3.90
2019-05-09T03:13:29.118Z,4.00
2019-05-09T03:14:28.841Z,3.60
2019-05-09T03:15:29.145Z,3.90
2019-05-09T03:16:29.298Z,3.70
2019-05-09T03:17:28.177Z,3.90
2019-05-09T03:18:28.708Z,4.10
2019-05-09T03:19:29.758Z,3.70
2019-05-09T03:20:29.008Z,4.40
2019-05-09T03:21:29.887Z,4.00
2019-05-09T03:22:28.870Z,3.60
2019-05-09T03:23:28.631Z,4.10
2019-05-09T03:24:28.884Z,4.30
2019-05-09T03:25:28.890Z,4.30
2019-05-09T03:26:29.301Z,4.20
2019-05-09T03:27:28.923Z,4.40
2019-05-09T03:28:28.458Z,4.40
2019-05-09T03:29:29.219Z,4.30
2019-05-09T03:30:29.102Z,4.40
2019-05-09T03:31:29.848Z,4.40
2019-05-09T03:32:29.728Z,4.40
2019-05-09T03:33:29.650Z,4.40
2019-05-09T03:34:30.102Z,3.60
2019-05-09T03:35:27.919Z,4.30
2019-05-09T03:36:28.199Z,3.90
2019-05-09T03:37:27.935Z,4.30
2019-05-09T03:38:28.436Z,4.10
2019-05-09T03:39:27.856Z,3.80
2019-05-09T03:40:27.863Z,3.90
2019-05-09T03:41:28.357Z,4.20
2019-05-09T03:42:38.062Z,3.90
2019-05-09T03:43:27.821Z,3.70
2019-05-09T03:44:28.370Z,3.90
2019-05-09T03:45:27.805Z,3.70
2019-05-09T03:46:28.073Z,3.90
2019-05-09T03:47:27.764Z,4.10
2019-05-09T03:48:28.388Z,3.70
2019-05-09T03:49:28.376Z,3.80
2019-05-09T03:50:28.022Z,3.60
2019-05-09T03:51:27.724Z,3.90
2019-05-09T03:52:27.994Z,3.90
2019-05-09T03:53:27.723Z,3.90
2019-05-09T03:54:28.323Z,3.70
2019-05-09T03:55:28.224Z,4.20
2019-05-09T03:56:27.688Z,3.90
2019-05-09T03:57:28.349Z,4.00
2019-05-09T03:58:28.193Z,4.00
2019-05-09T03:59:27.924Z,4.10
2019-05-09T04:00:28.316Z,4.00
2019-05-09T04:01:28.157Z,4.20
2019-05-09T04:02:28.169Z,3.70
2019-05-09T04:03:27.800Z,4.20
2019-05-09T04:04:28.134Z,3.90
2019-05-09T04:05:27.577Z,3.90
2019-05-09T04:06:28.237Z,4.30
2019-05-09T04:07:29.720Z,3.80
2019-05-09T04:08:28.246Z,3.60
2019-05-09T04:09:27.563Z,3.80
2019-05-09T04:10:28.211Z,3.70
2019-05-09T04:11:27.708Z,4.30
2019-05-09T04:12:28.306Z,4.20
2019-05-09T04:13:28.269Z,3.80
2019-05-09T04:14:28.209Z,3.90
2019-05-09T04:15:27.618Z,3.70
2019-05-09T04:16:27.819Z,3.90
2019-05-09T04:17:28.040Z,4.00
2019-05-09T04:18:27.791Z,4.00
2019-05-09T04:19:27.700Z,3.40
2019-05-09T04:20:27.788Z,3.60
2019-05-09T04:21:28.064Z,3.50
2019-05-09T04:22:27.394Z,3.60
2019-05-09T04:23:27.667Z,3.80
2019-05-09T04:24:28.082Z,3.90
2019-05-09T04:25:27.484Z,3.70
2019-05-09T04:26:27.713Z,3.70
2019-05-09T04:27:29.706Z,3.50
2019-05-09T04:28:27.863Z,3.50
2019-05-09T04:29:28.563Z,3.90
2019-05-09T04:30:27.509Z,3.60
2019-05-09T04:31:27.949Z,3.90
2019-05-09T04:32:27.445Z,3.50
2019-05-09T04:33:27.942Z,3.40
2019-05-09T04:34:27.623Z,3.40
2019-05-09T04:35:27.986Z,3.70
2019-05-09T04:36:27.381Z,3.40
2019-05-09T04:37:28.138Z,3.40
2019-05-09T04:38:27.903Z,3.00
2019-05-09T04:39:28.418Z,3.20
2019-05-09T04:40:31.781Z,3.10
2019-05-09T04:41:28.567Z,3.10
2019-05-09T04:42:28.359Z,3.40
2019-05-09T04:43:35.469Z,2.90
2019-05-09T04:44:28.431Z,3.30
2019-05-09T04:45:28.303Z,3.10
2019-05-09T04:46:27.692Z,3.40
2019-05-09T04:47:27.845Z,3.20
2019-05-09T04:48:28.179Z,3.30
2019-05-09T04:49:29.625Z,3.10
2019-05-09T04:50:27.923Z,3.20
2019-05-09T04:51:28.383Z,3.10
2019-05-09T04:52:27.944Z,3.20
2019-05-09T04:53:28.584Z,3.50
2019-05-09T04:54:28.033Z,3.30
2019-05-09T04:55:27.402Z,3.90
2019-05-09T04:56:27.888Z,3.70
2019-05-09T04:57:27.906Z,3.60
2019-05-09T04:58:27.455Z,3.20
2019-05-09T04:59:28.309Z,3.40
2019-05-09T05:00:27.363Z,3.60
2019-05-09T05:01:28.161Z,3.80
2019-05-09T05:02:27.619Z,3.30
2019-05-09T05:03:28.376Z,3.90
2019-05-09T05:04:28.225Z,4.00
2019-05-09T05:06:40.297Z,3.80
2019-05-09T05:07:37.719Z,4.00
2019-05-09T05:08:37.597Z,3.10
2019-05-09T05:09:37.914Z,3.50
2019-05-09T05:10:37.373Z,3.30
2019-05-09T05:11:38.365Z,3.00
2019-05-09T05:12:38.082Z,3.30
2019-05-09T05:13:38.341Z,3.40
2019-05-09T05:14:38.480Z,3.40
2019-05-09T05:15:37.763Z,3.50
2019-05-09T05:16:39.166Z,3.30
2019-05-09T05:17:37.763Z,3.30
2019-05-09T05:18:37.472Z,3.20
2019-05-09T05:19:38.284Z,2.90
2019-05-09T05:20:37.972Z,2.90
2019-05-09T05:21:37.812Z,3.30
2019-05-09T05:22:38.746Z,3.10
2019-05-09T05:23:38.075Z,2.80
2019-05-09T05:24:38.159Z,3.20
2019-05-09T05:25:38.244Z,3.10
2019-05-09T05:26:38.039Z,2.90
2019-05-09T05:27:38.236Z,2.80
2019-05-09T05:28:38.217Z,3.10
2019-05-09T05:29:38.324Z,3.00
2019-05-09T05:30:37.413Z,3.00
2019-05-09T05:31:38.797Z,3.00
2019-05-09T05:32:38.571Z,3.20
2019-05-09T05:33:38.267Z,2.90
2019-05-09T05:34:37.763Z,3.00
2019-05-09T05:35:37.614Z,3.10
2019-05-09T05:36:38.352Z,3.00
2019-05-09T05:37:38.611Z,2.80
2019-05-09T05:38:37.664Z,3.20
2019-05-09T05:39:37.555Z,3.40
2019-05-09T05:40:45.191Z,3.20
2019-05-09T05:41:37.798Z,3.50
2019-05-09T05:42:38.805Z,3.50
2019-05-09T05:43:41.467Z,3.40
2019-05-09T05:44:38.587Z,2.80
2019-05-09T05:45:37.545Z,3.60
2019-05-09T05:46:37.951Z,3.30
2019-05-09T05:47:39.421Z,3.50
2019-05-09T05:48:38.328Z,3.40
2019-05-09T05:49:38.508Z,3.30
2019-05-09T05:50:38.208Z,3.20
2019-05-09T05:51:38.008Z,3.10
2019-05-09T05:52:37.550Z,3.50
2019-05-09T05:53:38.021Z,3.40
2019-05-09T05:54:37.892Z,3.60
2019-05-09T05:55:38.013Z,3.40
2019-05-09T05:56:38.220Z,3.80
2019-05-09T05:57:38.554Z,3.50
2019-05-09T05:58:38.655Z,3.70
2019-05-09T05:59:40.052Z,3.70
2019-05-09T06:00:37.770Z,3.70
2019-05-09T06:01:39.373Z,3.80
2019-05-09T06:02:38.548Z,4.00
2019-05-09T06:03:37.711Z,3.90
2019-05-09T06:04:38.134Z,3.50
2019-05-09T06:05:38.308Z,3.80
2019-05-09T06:06:37.469Z,3.70
2019-05-09T06:07:37.829Z,4.00
2019-05-09T06:08:38.050Z,3.70
2019-05-09T06:09:37.908Z,4.30
2019-05-09T06:10:37.759Z,4.40
2019-05-09T06:11:38.398Z,4.20
2019-05-09T06:12:38.031Z,4.60
2019-05-09T06:13:37.995Z,4.60
2019-05-09T06:14:37.785Z,4.40
2019-05-09T06:15:37.949Z,5.00
2019-05-09T06:16:37.758Z,4.90
2019-05-09T06:17:38.001Z,4.80
2019-05-09T06:18:38.465Z,4.60
2019-05-09T06:19:37.894Z,5.10
2019-05-09T06:20:38.510Z,5.30
2019-05-09T06:21:37.511Z,5.40
2019-05-09T06:22:38.251Z,5.20
2019-05-09T06:23:37.410Z,4.80
2019-05-09T06:24:38.443Z,5.00
2019-05-09T06:25:38.742Z,4.80
2019-05-09T06:26:37.356Z,5.60
2019-05-09T06:27:37.601Z,5.70
2019-05-09T06:28:37.642Z,5.50
2019-05-09T06:29:38.561Z,5.70
2019-05-09T06:30:40.876Z,5.80
2019-05-09T06:31:37.598Z,6.30
2019-05-09T06:32:38.417Z,5.50
2019-05-09T06:33:44.746Z,6.10
2019-05-09T06:34:41.333Z,5.60
2019-05-09T06:35:37.893Z,5.40
2019-05-09T06:36:38.933Z,5.10
2019-05-09T06:37:38.147Z,5.00
2019-05-09T06:38:37.707Z,5.20
2019-05-09T06:39:37.773Z,4.80
2019-05-09T06:40:38.183Z,4.70
2019-05-09T06:41:37.894Z,4.00
2019-05-09T06:42:38.106Z,4.50
2019-05-09T06:43:39.377Z,4.40
2019-05-09T06:44:37.467Z,4.80
2019-05-09T06:45:39.249Z,4.80
2019-05-09T06:46:37.819Z,4.40
2019-05-09T06:47:38.040Z,4.50
2019-05-09T06:48:37.819Z,4.10
2019-05-09T06:49:37.636Z,4.60
2019-05-09T06:50:37.865Z,4.30
2019-05-09T06:51:38.555Z,4.30
2019-05-09T06:52:37.558Z,4.80
2019-05-09T06:53:37.952Z,4.70
2019-05-09T06:54:36.107Z,4.00
2019-05-09T06:55:38.343Z,4.00
2019-05-09T06:56:38.030Z,3.80
2019-05-09T06:57:40.101Z,3.80
2019-05-09T06:58:38.121Z,4.10
2019-05-09T06:59:38.080Z,3.90
2019-05-09T07:00:37.927Z,3.80
2019-05-09T07:01:37.584Z,4.00
2019-05-09T07:02:35.848Z,3.80
2019-05-09T07:03:37.489Z,4.10
2019-05-09T07:04:37.893Z,3.50
2019-05-09T07:05:35.792Z,3.50
2019-05-09T07:07:45.001Z,2.80
2019-05-09T07:08:47.678Z,3.30
2019-05-09T07:09:47.984Z,2.90
2019-05-09T07:10:48.277Z,3.50
2019-05-09T07:11:48.457Z,3.20
2019-05-09T07:12:45.984Z,3.10
2019-05-09T07:13:47.246Z,3.20
2019-05-09T07:14:48.449Z,2.80
2019-05-09T07:15:48.071Z,3.10
2019-05-09T07:16:47.856Z,2.50
2019-05-09T07:17:48.063Z,2.80
2019-05-09T07:18:45.868Z,2.60
2019-05-09T07:19:48.429Z,2.30
2019-05-09T07:20:47.718Z,2.50
2019-05-09T07:21:48.367Z,2.70
2019-05-09T07:22:47.962Z,2.70
2019-05-09T07:23:47.853Z,2.30
2019-05-09T07:24:48.004Z,2.60
2019-05-09T07:25:47.806Z,2.40
2019-05-09T07:26:47.813Z,2.40
2019-05-09T07:27:48.100Z,2.60
2019-05-09T07:28:48.290Z,2.60
2019-05-09T07:29:48.018Z,2.60
2019-05-09T07:30:47.972Z,2.70
2019-05-09T07:31:47.915Z,2.40
2019-05-09T07:32:45.717Z,2.80
2019-05-09T07:33:47.785Z,2.20
2019-05-09T07:34:47.445Z,2.30
2019-05-09T07:35:47.566Z,2.50
2019-05-09T07:36:47.628Z,2.20
2019-05-09T07:37:45.685Z,2.40
2019-05-09T07:38:47.803Z,2.30
2019-05-09T07:39:45.688Z,2.40
2019-05-09T07:40:47.760Z,2.40
2019-05-09T07:41:47.793Z,2.30
2019-05-09T07:42:47.704Z,2.40
2019-05-09T07:43:47.802Z,2.50
2019-05-09T07:44:51.444Z,2.40
2019-05-09T07:45:47.395Z,2.00
2019-05-09T07:46:47.470Z,2.40
2019-05-09T07:47:47.599Z,2.40
2019-05-09T07:48:48.192Z,2.10
2019-05-09T07:49:47.994Z,2.10
2019-05-09T07:50:47.974Z,2.10
2019-05-09T07:51:47.644Z,2.20
2019-05-09T07:52:47.683Z,2.10
2019-05-09T07:53:48.031Z,2.00
2019-05-09T07:54:45.478Z,2.00
2019-05-09T07:55:47.336Z,2.10
2019-05-09T07:56:45.469Z,1.90
2019-05-09T07:57:50.057Z,2.30
2019-05-09T07:58:47.754Z,2.10
2019-05-09T07:59:47.725Z,2.10
2019-05-09T08:00:45.429Z,2.00
2019-05-09T08:01:45.399Z,1.90
2019-05-09T08:02:47.120Z,1.70
2019-05-09T08:03:45.376Z,2.30
2019-05-09T08:04:45.361Z,2.00
2019-05-09T08:05:47.571Z,2.00
2019-05-09T08:06:45.343Z,1.90
2019-05-09T08:07:45.321Z,2.20
2019-05-09T08:08:47.493Z,2.20
2019-05-09T08:09:47.456Z,2.00
2019-05-09T08:10:47.617Z,1.80
2019-05-09T08:11:45.289Z,1.90
2019-05-09T08:12:47.901Z,2.40
2019-05-09T08:13:45.280Z,1.90
2019-05-09T08:14:55.302Z,2.00
2019-05-09T08:15:45.251Z,2.10
2019-05-09T08:16:47.383Z,1.90
2019-05-09T08:17:45.212Z,2.30
2019-05-09T08:18:45.211Z,2.10
2019-05-09T08:19:48.202Z,2.30
2019-05-09T08:20:47.513Z,1.90
2019-05-09T08:21:45.171Z,2.60
2019-05-09T08:22:52.409Z,2.40
2019-05-09T08:23:45.204Z,2.00
2019-05-09T08:24:45.132Z,2.10
2019-05-09T08:25:45.157Z,1.70
2019-05-09T08:26:47.641Z,2.20
2019-05-09T08:27:45.125Z,2.20
2019-05-09T08:28:47.832Z,2.10
2019-05-09T08:29:47.701Z,2.00
2019-05-09T08:30:48.225Z,2.10
2019-05-09T08:31:45.671Z,1.90
2019-05-09T08:32:45.051Z,2.00
2019-05-09T08:33:45.043Z,1.80
2019-05-09T08:34:45.026Z,1.90
2019-05-09T08:35:49.894Z,2.00
2019-05-09T08:36:45.048Z,2.00
2019-05-09T08:37:44.989Z,2.10
2019-05-09T08:38:47.599Z,1.80
2019-05-09T08:39:44.970Z,1.80
2019-05-09T08:40:44.960Z,2.30
2019-05-09T08:41:44.969Z,2.00
2019-05-09T08:42:44.936Z,2.10
2019-05-09T08:43:44.941Z,2.20
2019-05-09T08:44:44.948Z,2.30
2019-05-09T08:45:44.914Z,2.00
2019-05-09T08:46:44.907Z,1.90
2019-05-09T08:47:44.884Z,2.30
2019-05-09T08:48:44.875Z,1.70
2019-05-09T08:49:47.406Z,1.90
2019-05-09T08:50:44.842Z,2.10
2019-05-09T08:52:04.790Z,1.70
2019-05-09T08:52:44.954Z,2.00
2019-05-09T08:53:44.815Z,1.80
2019-05-09T08:54:44.798Z,1.70
2019-05-09T08:55:44.792Z,1.90
2019-05-09T08:56:47.526Z,1.70
2019-05-09T08:57:44.760Z,1.70
2019-05-09T08:58:44.761Z,2.20
2019-05-09T08:59:47.245Z,2.00
2019-05-09T09:00:44.730Z,2.10
2019-05-09T09:02:07.806Z,1.90
2019-05-09T09:02:44.724Z,1.90
2019-05-09T09:03:44.736Z,1.70
2019-05-09T09:04:44.701Z,2.00
2019-05-09T09:05:44.692Z,1.80
2019-05-09T09:06:44.708Z,1.60
2019-05-09T09:08:57.392Z,1.70
2019-05-09T09:09:57.774Z,1.80
2019-05-09T09:10:57.765Z,2.00
2019-05-09T09:11:58.139Z,2.10
2019-05-09T09:12:58.098Z,2.20
2019-05-09T09:13:57.677Z,2.20
2019-05-09T09:14:58.392Z,2.00
2019-05-09T09:16:11.641Z,2.10
2019-05-09T09:16:57.604Z,2.10
2019-05-09T09:17:57.943Z,2.00
2019-05-09T09:18:58.193Z,2.10
2019-05-09T09:19:58.137Z,2.00
2019-05-09T09:20:55.811Z,1.80
2019-05-09T09:22:00.245Z,2.10
2019-05-09T09:22:58.030Z,1.80
2019-05-09T09:23:58.048Z,2.10
2019-05-09T09:24:55.782Z,2.30
2019-05-09T09:25:58.195Z,2.40
2019-05-09T09:26:57.409Z,2.10
2019-05-09T09:27:58.249Z,2.00
2019-05-09T09:28:57.802Z,1.80
2019-05-09T09:29:55.738Z,2.20
2019-05-09T09:30:55.836Z,2.00
2019-05-09T09:31:57.642Z,1.90
2019-05-09T09:32:58.361Z,1.70
2019-05-09T09:33:55.679Z,1.60
2019-05-09T09:34:55.661Z,1.80
2019-05-09T09:35:57.884Z,1.70
2019-05-09T09:36:55.676Z,1.90
2019-05-09T09:37:57.921Z,1.90
2019-05-09T09:38:55.633Z,2.20
2019-05-09T09:39:58.052Z,2.00
2019-05-09T09:40:57.946Z,2.30
2019-05-09T09:41:55.643Z,2.40
2019-05-09T09:42:57.947Z,2.20
2019-05-09T09:43:58.031Z,2.10
2019-05-09T09:44:55.586Z,2.00
2019-05-09T09:46:07.220Z,2.20
2019-05-09T09:46:57.956Z,2.00
2019-05-09T09:47:58.854Z,1.90
2019-05-09T09:48:55.527Z,1.90
2019-05-09T09:49:58.391Z,2.20
2019-05-09T09:50:57.839Z,2.30
2019-05-09T09:51:57.941Z,1.70
2019-05-09T09:52:58.466Z,1.80
2019-05-09T09:53:58.146Z,1.60
2019-05-09T09:54:58.064Z,1.70
2019-05-09T09:55:57.915Z,1.80
2019-05-09T09:56:55.430Z,1.90
2019-05-09T09:57:57.705Z,2.20
2019-05-09T09:58:57.558Z,2.00
2019-05-09T09:59:55.394Z,2.00
2019-05-09T10:00:58.193Z,2.40
2019-05-09T10:01:55.391Z,1.70
2019-05-09T10:02:55.381Z,2.00
2019-05-09T10:03:57.955Z,2.00
2019-05-09T10:04:55.346Z,1.90
2019-05-09T10:05:57.585Z,1.90
2019-05-09T10:06:58.110Z,1.80
2019-05-09T10:07:55.334Z,2.00
2019-05-09T10:08:57.844Z,2.00
2019-05-09T10:09:55.275Z,1.90
2019-05-09T10:10:55.278Z,1.80
2019-05-09T10:11:58.156Z,2.20
2019-05-09T10:12:55.262Z,2.20
2019-05-09T10:13:55.253Z,2.10
2019-05-09T10:14:57.618Z,1.80
2019-05-09T10:15:55.240Z,2.20
2019-05-09T10:16:55.215Z,1.90
2019-05-09T10:17:55.211Z,1.80
2019-05-09T10:18:57.733Z,2.00
2019-05-09T10:19:55.173Z,2.10
2019-05-09T10:20:55.162Z,1.80
2019-05-09T10:21:57.629Z,1.90
2019-05-09T10:23:00.527Z,1.80
2019-05-09T10:23:57.407Z,1.90
2019-05-09T10:24:55.132Z,1.80
2019-05-09T10:25:55.164Z,2.20
2019-05-09T10:26:55.097Z,1.90
2019-05-09T10:27:55.102Z,2.00
2019-05-09T10:28:55.125Z,2.10
2019-05-09T10:29:57.337Z,2.00
2019-05-09T10:30:57.568Z,2.00
2019-05-09T10:31:55.051Z,2.60
2019-05-09T10:32:55.036Z,2.20
2019-05-09T10:33:55.099Z,2.10
2019-05-09T10:34:55.014Z,2.60
2019-05-09T10:35:55.002Z,2.50
2019-05-09T10:36:54.985Z,2.30
2019-05-09T10:37:54.986Z,2.10
2019-05-09T10:38:54.987Z,2.50
2019-05-09T10:39:54.952Z,2.10
2019-05-09T10:40:54.941Z,2.50
2019-05-09T10:41:57.553Z,1.90
2019-05-09T10:42:54.922Z,2.30
2019-05-09T10:43:54.938Z,2.10
2019-05-09T10:44:54.898Z,2.30
2019-05-09T10:45:54.889Z,2.10
2019-05-09T10:46:58.850Z,2.20
2019-05-09T10:47:54.875Z,2.10
2019-05-09T10:48:54.879Z,2.50
2019-05-09T10:49:54.850Z,2.20
2019-05-09T10:51:03.450Z,2.40
2019-05-09T10:51:54.836Z,2.20
2019-05-09T10:52:54.809Z,2.00
2019-05-09T10:53:54.823Z,2.30
2019-05-09T10:54:54.796Z,2.40
2019-05-09T10:55:54.799Z,2.40
2019-05-09T10:56:54.780Z,2.10
2019-05-09T10:57:54.770Z,2.50
2019-05-09T10:58:54.809Z,2.40
2019-05-09T10:59:54.739Z,2.40
2019-05-09T11:00:54.723Z,2.10
2019-05-09T11:01:54.731Z,2.00
2019-05-09T11:02:54.722Z,2.20
2019-05-09T11:03:54.734Z,2.20
2019-05-09T11:04:54.681Z,2.10
2019-05-09T11:05:54.667Z,2.20
2019-05-09T11:06:54.667Z,2.00
2019-05-09T11:07:54.673Z,1.80
2019-05-09T11:10:23.449Z,1.70
2019-05-09T11:11:06.247Z,1.90
2019-05-09T11:12:07.708Z,2.30
2019-05-09T11:13:07.394Z,1.80
2019-05-09T11:14:05.110Z,1.90
2019-05-09T11:15:05.074Z,1.80
2019-05-09T11:16:07.525Z,2.10
2019-05-09T11:17:12.440Z,2.30
2019-05-09T11:18:05.060Z,2.10
2019-05-09T11:19:07.756Z,2.00
2019-05-09T11:20:05.029Z,2.40
2019-05-09T11:21:05.011Z,1.80
2019-05-09T11:22:07.803Z,2.00
2019-05-09T11:23:04.974Z,2.30
2019-05-09T11:24:04.966Z,2.00
2019-05-09T11:25:04.981Z,1.80
2019-05-09T11:26:04.958Z,2.00
2019-05-09T11:27:04.930Z,2.00
2019-05-09T11:28:11.227Z,2.30
2019-05-09T11:29:04.932Z,2.10
2019-05-09T11:30:05.196Z,2.20
2019-05-09T11:31:04.904Z,2.10
2019-05-09T11:32:04.875Z,2.00
2019-05-09T11:33:04.879Z,2.10
2019-05-09T11:34:04.867Z,2.00
2019-05-09T11:35:04.887Z,2.00
2019-05-09T11:36:04.870Z,1.80
2019-05-09T11:37:04.826Z,1.80
2019-05-09T11:38:04.834Z,1.70
2019-05-09T11:39:09.925Z,1.90
2019-05-09T11:40:04.819Z,1.90
2019-05-09T11:41:04.790Z,1.70
2019-05-09T11:42:04.777Z,1.80
2019-05-09T11:43:04.761Z,1.70
2019-05-09T11:44:04.752Z,1.90
2019-05-09T11:45:04.769Z,1.70
2019-05-09T11:46:04.761Z,2.00
2019-05-09T11:47:04.708Z,1.70
2019-05-09T11:48:04.731Z,2.20
2019-05-09T11:49:04.712Z,2.20
2019-05-09T11:50:04.710Z,1.70
2019-05-09T11:51:04.671Z,1.80
2019-05-09T11:52:04.661Z,1.80
2019-05-09T11:53:04.648Z,1.90
2019-05-09T11:54:05.603Z,1.90
2019-05-09T11:55:04.649Z,1.90
2019-05-09T11:56:04.623Z,1.60
2019-05-09T11:57:04.610Z,1.40
2019-05-09T11:58:04.602Z,2.00
2019-05-09T11:59:04.590Z,2.10
2019-05-09T12:00:04.713Z,1.60
2019-05-09T12:01:04.568Z,1.50
2019-05-09T12:02:04.558Z,2.00
2019-05-09T12:03:04.577Z,2.20
2019-05-09T12:04:04.526Z,1.60
2019-05-09T12:05:04.564Z,1.50
2019-05-09T12:06:04.511Z,1.70
2019-05-09T12:07:04.498Z,2.00
2019-05-09T12:08:04.524Z,2.00
2019-05-09T12:09:04.506Z,1.80
2019-05-09T12:10:04.487Z,2.30
2019-05-09T12:11:04.456Z,1.70
2019-05-09T12:12:04.438Z,1.50
2019-05-09T12:13:04.424Z,2.00
2019-05-09T12:14:04.419Z,1.50
2019-05-09T12:15:04.417Z,1.90
2019-05-09T12:16:04.409Z,1.30
2019-05-09T12:17:04.402Z,1.90
2019-05-09T12:18:09.130Z,2.10
2019-05-09T12:19:04.364Z,1.70
2019-05-09T12:20:12.239Z,1.80
2019-05-09T12:21:04.341Z,1.50
2019-05-09T12:22:04.337Z,1.70
2019-05-09T12:23:04.321Z,1.70
2019-05-09T12:24:04.335Z,1.70
2019-05-09T12:25:04.315Z,1.80
2019-05-09T12:26:04.289Z,2.00
2019-05-09T12:27:04.288Z,1.70
2019-05-09T12:28:04.263Z,1.80
2019-05-09T12:29:04.260Z,1.90
2019-05-09T12:30:04.328Z,1.70
2019-05-09T12:31:04.272Z,1.90
2019-05-09T12:32:04.239Z,2.00
2019-05-09T12:33:04.211Z,2.00
2019-05-09T12:34:05.095Z,1.60
2019-05-09T12:35:04.208Z,1.70
2019-05-09T12:36:04.217Z,1.70
2019-05-09T12:37:04.171Z,1.80
2019-05-09T12:38:04.232Z,1.60
2019-05-09T12:39:04.153Z,2.20
2019-05-09T12:40:04.155Z,1.60
2019-05-09T12:41:04.136Z,1.70
2019-05-09T12:42:04.120Z,1.50
2019-05-09T12:43:04.118Z,1.80
2019-05-09T12:44:04.151Z,1.80
2019-05-09T12:45:04.082Z,1.40
2019-05-09T12:46:04.085Z,1.60
2019-05-09T12:47:04.054Z,1.50
2019-05-09T12:48:10.373Z,1.50
2019-05-09T12:49:04.041Z,1.40
2019-05-09T12:50:04.031Z,1.70
2019-05-09T12:51:04.036Z,1.50
2019-05-09T12:52:04.018Z,1.40
2019-05-09T12:53:03.990Z,1.70
2019-05-09T12:54:03.981Z,2.10
2019-05-09T12:55:03.964Z,1.70
2019-05-09T12:56:03.996Z,1.60
2019-05-09T12:57:03.952Z,1.60
2019-05-09T12:58:04.175Z,1.80
2019-05-09T12:59:03.928Z,1.50
2019-05-09T13:00:03.992Z,1.50
2019-05-09T13:01:03.923Z,1.20
2019-05-09T13:02:03.920Z,1.50
2019-05-09T13:03:03.880Z,1.40
2019-05-09T13:04:03.891Z,1.40
2019-05-09T13:05:03.891Z,1.70
2019-05-09T13:06:03.861Z,1.50
2019-05-09T13:07:03.882Z,1.50
2019-05-09T13:08:03.835Z,1.40
2019-05-09T13:09:03.822Z,1.50
2019-05-09T13:11:13.033Z,1.90
2019-05-09T13:12:14.013Z,1.30
2019-05-09T13:13:14.016Z,1.50
2019-05-09T13:14:13.992Z,1.30
2019-05-09T13:15:14.007Z,1.30
2019-05-09T13:16:14.440Z,1.10
2019-05-09T13:17:13.971Z,1.50
2019-05-09T13:18:21.753Z,1.30
2019-05-09T13:19:14.009Z,1.20
2019-05-09T13:20:13.938Z,1.20
2019-05-09T13:21:13.959Z,1.20
2019-05-09T13:22:13.916Z,1.40
2019-05-09T13:23:13.955Z,1.20
2019-05-09T13:24:13.936Z,1.70
2019-05-09T13:25:13.874Z,1.20
2019-05-09T13:26:13.869Z,1.10